createdAt,value
2022-12-04T00:00:51.742Z,47.60
2022-12-04T00:03:18.140Z,45.37
2022-12-04T00:05:44.631Z,48.70
2022-12-04T00:08:10.978Z,43.37
2022-12-04T00:10:43.283Z,44.43
2022-12-04T00:13:09.601Z,48.87
2022-12-04T00:15:35.949Z,49.73
2022-12-04T00:18:02.287Z,42.67
2022-12-04T00:20:28.906Z,46.53
2022-12-04T00:22:55.238Z,54.00
2022-12-04T00:25:21.633Z,43.80
2022-12-04T00:27:48.009Z,43.40
2022-12-04T00:30:14.470Z,48.43
2022-12-04T00:32:40.831Z,44.63
2022-12-04T00:35:07.506Z,41.73
2022-12-04T00:37:33.940Z,52.83
2022-12-04T00:40:00.264Z,48.17
2022-12-04T00:42:26.678Z,45.80
2022-12-04T00:44:53.015Z,41.27
2022-12-04T00:47:19.374Z,45.83
2022-12-04T00:49:45.706Z,44.63
2022-12-04T00:52:12.065Z,41.43
2022-12-04T00:54:38.378Z,39.20
2022-12-04T00:57:04.750Z,40.67
2022-12-04T00:59:31.113Z,43.10
2022-12-04T01:01:57.491Z,41.33
2022-12-04T01:04:23.838Z,47.53
2022-12-04T01:06:50.217Z,43.90
2022-12-04T01:09:16.542Z,44.10
2022-12-04T01:11:43.350Z,42.03
2022-12-04T01:14:09.703Z,40.77
2022-12-04T01:16:38.489Z,42.93
2022-12-04T01:19:07.415Z,38.43
2022-12-04T01:21:34.703Z,48.93
2022-12-04T01:24:01.193Z,43.80
2022-12-04T01:26:27.824Z,40.23
2022-12-04T01:28:54.160Z,35.73
2022-12-04T01:31:21.908Z,32.77
2022-12-04T01:33:49.212Z,36.03
2022-12-04T01:36:18.545Z,36.30
2022-12-04T01:38:45.346Z,39.07
2022-12-04T01:41:13.911Z,41.60
2022-12-04T01:43:41.463Z,43.87
2022-12-04T01:46:09.168Z,40.30
2022-12-04T01:48:39.837Z,36.47
2022-12-04T01:51:08.889Z,43.80
2022-12-04T01:53:39.869Z,44.90
2022-12-04T01:56:07.043Z,37.80
2022-12-04T01:58:40.799Z,38.07
2022-12-04T02:01:09.584Z,43.60
2022-12-04T02:03:37.615Z,37.50
2022-12-04T02:06:04.268Z,34.70
2022-12-04T02:08:31.339Z,40.60
2022-12-04T02:11:34.206Z,40.67
2022-12-04T02:14:07.609Z,41.50
2022-12-04T02:16:47.062Z,33.00
2022-12-04T02:19:43.141Z,42.53
2022-12-04T02:22:42.622Z,45.37
2022-12-04T02:25:29.535Z,41.47
2022-12-04T02:28:05.031Z,39.47
2022-12-04T02:30:33.274Z,39.60
2022-12-04T02:33:06.261Z,38.50
2022-12-04T02:35:40.930Z,37.87
2022-12-04T02:38:17.519Z,35.87
2022-12-04T02:41:08.811Z,38.80
2022-12-04T02:43:41.821Z,35.87
2022-12-04T02:46:24.830Z,43.83
2022-12-04T02:48:55.876Z,41.97
2022-12-04T02:51:25.969Z,46.37
2022-12-04T02:53:57.767Z,37.97
2022-12-04T02:56:30.538Z,39.13
2022-12-04T02:59:06.148Z,38.30
2022-12-04T03:01:37.936Z,39.17
2022-12-04T03:04:23.899Z,36.40
2022-12-04T03:06:57.992Z,38.70
2022-12-04T03:09:36.629Z,45.70
2022-12-04T03:12:13.312Z,41.50
2022-12-04T03:14:44.105Z,42.60
2022-12-04T03:17:18.297Z,42.23
2022-12-04T03:19:55.007Z,41.50
2022-12-04T03:22:24.230Z,40.53
2022-12-04T03:24:55.714Z,42.43
2022-12-04T03:27:33.171Z,44.47
2022-12-04T03:30:07.259Z,39.57
2022-12-04T03:32:51.655Z,36.17
2022-12-04T03:35:29.342Z,40.40
2022-12-04T03:38:04.714Z,39.57
2022-12-04T03:40:30.987Z,41.37
2022-12-04T03:43:22.675Z,39.50
2022-12-04T03:46:05.492Z,37.97
2022-12-04T03:48:42.419Z,37.47
2022-12-04T03:51:30.097Z,42.10
2022-12-04T03:54:02.483Z,39.37
2022-12-04T03:56:35.138Z,46.20
2022-12-04T03:59:11.333Z,38.53
2022-12-04T04:01:45.755Z,37.20
2022-12-04T04:04:19.082Z,39.73
2022-12-04T04:06:52.810Z,42.43
2022-12-04T04:09:26.346Z,36.60
2022-12-04T04:11:58.211Z,38.80
2022-12-04T04:14:52.105Z,42.27
2022-12-04T04:17:41.850Z,42.43
2022-12-04T04:20:37.167Z,44.77
2022-12-04T04:23:26.131Z,40.40
2022-12-04T04:25:53.703Z,45.27
2022-12-04T04:28:41.349Z,40.10
2022-12-04T04:31:33.707Z,38.13
2022-12-04T04:34:23.270Z,37.30
2022-12-04T04:37:00.565Z,41.10
2022-12-04T04:39:53.189Z,44.70
2022-12-04T04:42:28.563Z,43.00
2022-12-04T04:45:04.070Z,36.27
2022-12-04T04:47:47.145Z,42.43
2022-12-04T04:50:15.382Z,40.93
2022-12-04T04:52:46.716Z,40.03
2022-12-04T04:55:15.449Z,36.63
2022-12-04T04:57:41.807Z,38.70
2022-12-04T05:00:12.361Z,47.50
2022-12-04T05:02:38.951Z,36.20
2022-12-04T05:05:05.624Z,37.93
2022-12-04T05:07:32.052Z,43.80
2022-12-04T05:09:58.899Z,41.80
2022-12-04T05:12:25.490Z,41.17
2022-12-04T05:14:51.818Z,41.97
2022-12-04T05:17:18.212Z,43.70
2022-12-04T05:19:53.971Z,41.40
2022-12-04T05:22:29.249Z,39.80
2022-12-04T05:24:55.884Z,39.50
2022-12-04T05:27:23.147Z,42.13
2022-12-04T05:29:52.301Z,45.30
2022-12-04T05:32:18.868Z,39.33
2022-12-04T05:34:48.090Z,40.73
2022-12-04T05:37:14.548Z,40.13
2022-12-04T05:39:40.894Z,38.30
2022-12-04T05:42:07.267Z,43.50
2022-12-04T05:44:33.608Z,38.40
2022-12-04T05:47:00.054Z,44.57
2022-12-04T05:49:29.376Z,37.50
2022-12-04T05:51:55.859Z,45.97
2022-12-04T05:54:22.370Z,44.20
2022-12-04T05:56:48.751Z,44.50
2022-12-04T05:59:15.227Z,39.63
2022-12-04T06:01:42.234Z,41.27
2022-12-04T06:04:09.039Z,41.90
2022-12-04T06:06:35.531Z,40.10
2022-12-04T06:09:03.963Z,43.10
2022-12-04T06:11:36.524Z,44.90
2022-12-04T06:14:06.875Z,37.27
2022-12-04T06:16:36.067Z,38.87
2022-12-04T06:19:07.395Z,39.63
2022-12-04T06:21:37.214Z,39.20
2022-12-04T06:24:05.239Z,38.90
2022-12-04T06:26:31.595Z,40.47
2022-12-04T06:28:59.451Z,40.70
2022-12-04T06:31:28.330Z,42.03
2022-12-04T06:33:57.275Z,42.30
2022-12-04T06:36:24.000Z,41.33
2022-12-04T06:38:51.417Z,39.47
2022-12-04T06:41:20.378Z,45.90
2022-12-04T06:43:48.622Z,38.47
2022-12-04T06:46:18.794Z,37.30
2022-12-04T06:48:45.876Z,40.67
2022-12-04T06:51:21.341Z,49.00
2022-12-04T06:53:48.635Z,43.97
2022-12-04T06:56:18.190Z,47.53
2022-12-04T06:58:50.122Z,37.67
2022-12-04T07:01:19.775Z,45.07
2022-12-04T07:03:51.359Z,38.47
2022-12-04T07:06:24.007Z,45.27
2022-12-04T07:08:53.382Z,39.70
2022-12-04T07:11:21.363Z,46.03
2022-12-04T07:13:48.675Z,39.13
2022-12-04T07:16:17.661Z,36.73
2022-12-04T07:18:44.543Z,39.43
2022-12-04T07:21:14.872Z,47.83
2022-12-04T07:23:41.621Z,43.60
2022-12-04T07:26:11.937Z,40.50
2022-12-04T07:28:39.523Z,43.20
2022-12-04T07:31:07.374Z,48.43
2022-12-04T07:33:34.246Z,45.83
2022-12-04T07:36:02.886Z,50.80
2022-12-04T07:38:31.317Z,43.53
2022-12-04T07:40:59.608Z,51.07
2022-12-04T07:43:27.149Z,42.80
2022-12-04T07:45:53.575Z,55.33
2022-12-04T07:48:20.390Z,40.03
2022-12-04T07:50:46.797Z,42.73
2022-12-04T07:53:13.341Z,51.70
2022-12-04T07:55:39.692Z,46.77
2022-12-04T07:58:06.182Z,44.57
2022-12-04T08:00:32.586Z,50.53
2022-12-04T08:02:58.949Z,46.37
2022-12-04T08:05:25.284Z,44.40
2022-12-04T08:07:51.735Z,47.07
2022-12-04T08:10:18.129Z,45.40
2022-12-04T08:12:44.491Z,41.03
2022-12-04T08:15:10.975Z,49.33
2022-12-04T08:17:37.734Z,49.83
2022-12-04T08:20:04.485Z,50.40
2022-12-04T08:22:30.815Z,52.03
2022-12-04T08:24:57.207Z,49.60
2022-12-04T08:27:23.526Z,45.83
2022-12-04T08:29:49.886Z,42.47
2022-12-04T08:32:16.224Z,51.23
2022-12-04T08:34:42.586Z,51.93
2022-12-04T08:37:09.361Z,39.87
2022-12-04T08:39:35.714Z,51.23
2022-12-04T08:42:02.038Z,51.97
2022-12-04T08:44:28.403Z,51.60
2022-12-04T08:46:54.750Z,47.53
2022-12-04T08:49:21.489Z,54.00
2022-12-04T08:51:47.844Z,47.63
2022-12-04T08:54:14.254Z,50.23
2022-12-04T08:56:40.624Z,47.50
2022-12-04T08:59:07.185Z,49.67
2022-12-04T09:01:33.550Z,46.23
2022-12-04T09:04:00.142Z,43.67
2022-12-04T09:06:26.645Z,45.10
2022-12-04T09:08:54.975Z,48.53
2022-12-04T09:11:23.121Z,50.17
2022-12-04T09:13:49.860Z,48.20
2022-12-04T09:16:21.887Z,49.73
2022-12-04T09:18:49.843Z,57.20
2022-12-04T09:21:18.121Z,53.33
2022-12-04T09:23:46.269Z,54.60
2022-12-04T09:26:33.248Z,49.30
2022-12-04T09:29:01.896Z,53.47
2022-12-04T09:31:29.298Z,48.87
2022-12-04T09:33:58.734Z,51.10
2022-12-04T09:36:25.237Z,50.67
2022-12-04T09:38:53.516Z,51.43
2022-12-04T09:41:28.117Z,45.63
2022-12-04T09:43:58.623Z,50.03
2022-12-04T09:46:37.408Z,47.47
2022-12-04T09:49:12.569Z,51.90
2022-12-04T09:51:40.846Z,45.47
2022-12-04T09:54:15.447Z,48.37
2022-12-04T09:56:44.028Z,54.97
2022-12-04T09:59:26.048Z,40.00
2022-12-04T10:02:23.207Z,45.63
2022-12-04T10:04:49.828Z,44.10
2022-12-04T10:07:22.385Z,46.53
2022-12-04T10:10:05.401Z,47.00
2022-12-04T10:13:20.255Z,47.30
2022-12-04T10:16:01.812Z,46.67
2022-12-04T10:19:01.911Z,43.20
2022-12-04T10:21:48.414Z,41.77
2022-12-04T10:24:27.298Z,43.77
2022-12-04T10:26:58.673Z,39.90
2022-12-04T10:29:30.727Z,44.07
2022-12-04T10:32:06.800Z,43.57
2022-12-04T10:34:33.331Z,43.80
2022-12-04T10:37:06.175Z,45.23
2022-12-04T10:39:41.328Z,42.40
2022-12-04T10:42:26.688Z,42.87
2022-12-04T10:44:53.944Z,43.70
2022-12-04T10:47:22.135Z,48.93
2022-12-04T10:49:48.845Z,42.87
2022-12-04T10:52:15.206Z,45.77
2022-12-04T10:55:00.987Z,46.57
2022-12-04T10:57:37.985Z,37.80
2022-12-04T11:00:24.145Z,46.57
2022-12-04T11:02:52.043Z,39.83
2022-12-04T11:05:32.114Z,41.80
2022-12-04T11:08:00.897Z,38.73
2022-12-04T11:10:31.891Z,34.00
2022-12-04T11:13:16.690Z,38.67
2022-12-04T11:15:54.357Z,35.33
2022-12-04T11:18:30.808Z,38.27
2022-12-04T11:21:15.043Z,35.00
2022-12-04T11:23:51.582Z,38.77
2022-12-04T11:26:33.692Z,36.83
2022-12-04T11:29:05.225Z,39.73
2022-12-04T11:31:32.612Z,46.77
2022-12-04T11:34:05.299Z,47.50
2022-12-04T11:36:35.435Z,43.33
2022-12-04T11:39:07.325Z,34.63
2022-12-04T11:41:34.370Z,36.67
2022-12-04T11:44:01.096Z,37.80
2022-12-04T11:46:31.221Z,36.97
2022-12-04T11:48:57.915Z,36.70
2022-12-04T11:51:39.488Z,39.67
2022-12-04T11:54:24.757Z,41.93
2022-12-04T11:56:59.030Z,38.47
2022-12-04T11:59:50.671Z,34.80
2022-12-04T12:02:38.746Z,36.03
2022-12-04T12:05:20.186Z,39.83
2022-12-04T12:08:10.902Z,37.43
2022-12-04T12:10:55.842Z,41.77
2022-12-04T12:13:51.623Z,35.47
2022-12-04T12:16:37.094Z,37.60
2022-12-04T12:19:12.682Z,34.73
2022-12-04T12:21:38.977Z,33.40
2022-12-04T12:24:29.796Z,37.70
2022-12-04T12:27:17.702Z,41.47
2022-12-04T12:30:00.891Z,38.77
2022-12-04T12:33:03.851Z,39.77
2022-12-04T12:35:46.822Z,36.57
2022-12-04T12:38:18.467Z,45.87
2022-12-04T12:40:50.113Z,36.87
2022-12-04T12:43:24.397Z,33.20
2022-12-04T12:46:04.725Z,37.30
2022-12-04T12:48:52.467Z,30.80
2022-12-04T12:51:39.625Z,32.00
2022-12-04T12:54:36.681Z,35.43
2022-12-04T12:57:15.058Z,35.67
2022-12-04T12:59:47.484Z,35.50
2022-12-04T13:02:30.424Z,39.73
2022-12-04T13:05:09.205Z,33.37
2022-12-04T13:07:47.109Z,43.70
2022-12-04T13:10:19.021Z,34.20
2022-12-04T13:12:53.801Z,32.50
2022-12-04T13:15:24.334Z,32.57
2022-12-04T13:17:53.906Z,31.53
2022-12-04T13:20:26.927Z,30.90
2022-12-04T13:23:19.122Z,32.10
2022-12-04T13:26:10.252Z,29.70
2022-12-04T13:28:54.591Z,31.63
2022-12-04T13:31:46.043Z,32.03
2022-12-04T13:34:50.618Z,35.37
2022-12-04T13:38:02.126Z,32.07
2022-12-04T13:40:37.522Z,26.80
2022-12-04T13:43:15.650Z,33.57
2022-12-04T13:45:45.551Z,26.20
2022-12-04T13:48:12.045Z,31.80
2022-12-04T13:50:39.908Z,29.03
2022-12-04T13:53:26.389Z,29.63
2022-12-04T13:55:57.071Z,35.13
2022-12-04T13:58:29.921Z,31.40
2022-12-04T14:01:12.901Z,25.23
2022-12-04T14:03:51.730Z,33.03
2022-12-04T14:06:42.687Z,25.93
2022-12-04T14:09:21.585Z,26.83
2022-12-04T14:11:53.870Z,28.73
2022-12-04T14:14:26.443Z,24.77
2022-12-04T14:16:53.516Z,28.30
2022-12-04T14:19:44.920Z,25.43
2022-12-04T14:22:39.432Z,26.77
2022-12-04T14:25:43.844Z,26.10
2022-12-04T14:28:41.736Z,26.60
2022-12-04T14:31:08.702Z,25.80
2022-12-04T14:33:42.420Z,31.00
2022-12-04T14:36:17.946Z,26.80
2022-12-04T14:38:48.183Z,25.80
2022-12-04T14:41:23.106Z,26.73
2022-12-04T14:43:50.242Z,25.17
2022-12-04T14:46:30.334Z,31.93
2022-12-04T14:49:27.083Z,26.70
2022-12-04T14:52:02.946Z,33.43
2022-12-04T14:54:35.543Z,24.87
2022-12-04T14:57:01.888Z,30.23
2022-12-04T14:59:42.559Z,29.43
2022-12-04T15:02:16.444Z,30.83
2022-12-04T15:04:46.255Z,31.23
2022-12-04T15:07:24.914Z,32.83
2022-12-04T15:10:12.557Z,38.00
2022-12-04T15:12:49.197Z,35.53
2022-12-04T15:15:25.616Z,32.93
2022-12-04T15:18:16.642Z,29.67
2022-12-04T15:20:57.780Z,34.20
2022-12-04T15:23:33.454Z,29.33
2022-12-04T15:26:11.663Z,30.93
2022-12-04T15:28:59.909Z,34.40
2022-12-04T15:31:36.090Z,33.57
2022-12-04T15:34:07.824Z,34.10
2022-12-04T15:36:41.755Z,37.40
2022-12-04T15:39:08.141Z,37.23
2022-12-04T15:41:36.824Z,32.87
2022-12-04T15:44:25.116Z,36.57
2022-12-04T15:46:54.744Z,34.87
2022-12-04T15:49:30.579Z,39.37
2022-12-04T15:52:06.554Z,43.67
2022-12-04T15:54:33.619Z,39.20
2022-12-04T15:57:02.318Z,37.07
2022-12-04T15:59:30.137Z,34.87
2022-12-04T16:02:06.318Z,36.20
2022-12-04T16:04:35.508Z,37.73
2022-12-04T16:07:02.284Z,34.87
2022-12-04T16:09:28.891Z,35.07
2022-12-04T16:12:19.165Z,30.37
2022-12-04T16:14:46.319Z,40.27
2022-12-04T16:17:13.668Z,36.00
2022-12-04T16:19:41.820Z,40.30
2022-12-04T16:22:14.903Z,40.20
2022-12-04T16:24:41.633Z,37.13
2022-12-04T16:27:22.491Z,36.93
2022-12-04T16:29:52.716Z,38.57
2022-12-04T16:32:21.519Z,29.43
2022-12-04T16:34:48.892Z,34.00
2022-12-04T16:37:19.431Z,31.83
2022-12-04T16:39:46.601Z,33.70
2022-12-04T16:42:22.440Z,33.67
2022-12-04T16:44:49.237Z,35.03
2022-12-04T16:47:16.404Z,34.83
2022-12-04T16:49:44.130Z,35.57
2022-12-04T16:52:13.371Z,30.80
2022-12-04T16:54:40.228Z,53.50
2022-12-04T16:57:07.502Z,37.47
2022-12-04T16:59:33.990Z,35.87
2022-12-04T17:02:01.427Z,33.13
2022-12-04T17:04:27.938Z,39.10
2022-12-04T17:06:54.461Z,39.90
2022-12-04T17:09:21.137Z,32.90
2022-12-04T17:11:47.496Z,35.10
2022-12-04T17:14:14.831Z,33.80
2022-12-04T17:16:43.521Z,28.90
2022-12-04T17:19:10.807Z,31.00
2022-12-04T17:21:38.026Z,31.23
2022-12-04T17:24:04.762Z,37.17
2022-12-04T17:26:31.180Z,36.40
2022-12-04T17:28:57.516Z,33.93
2022-12-04T17:31:25.910Z,34.23
2022-12-04T17:33:52.527Z,34.77
2022-12-04T17:36:22.611Z,34.83
2022-12-04T17:38:53.891Z,34.40
2022-12-04T17:41:20.292Z,34.27
2022-12-04T17:43:46.897Z,39.80
2022-12-04T17:46:16.607Z,36.67
2022-12-04T17:48:43.230Z,32.27
2022-12-04T17:51:12.885Z,34.83
2022-12-04T17:53:39.506Z,37.00
2022-12-04T17:56:09.527Z,34.07
2022-12-04T17:58:36.207Z,38.10
2022-12-04T18:01:15.021Z,35.13
2022-12-04T18:03:43.254Z,37.37
2022-12-04T18:06:21.694Z,39.40
2022-12-04T18:08:50.381Z,34.27
2022-12-04T18:11:20.357Z,39.53
2022-12-04T18:13:55.214Z,32.40
2022-12-04T18:16:22.272Z,30.33
2022-12-04T18:18:48.850Z,35.40
2022-12-04T18:21:15.450Z,32.87
2022-12-04T18:23:45.316Z,31.87
2022-12-04T18:26:18.379Z,32.10
2022-12-04T18:28:45.519Z,36.23
2022-12-04T18:31:13.747Z,32.20
2022-12-04T18:33:41.481Z,29.00
2022-12-04T18:36:15.835Z,31.17
2022-12-04T18:38:42.503Z,29.03
2022-12-04T18:41:11.511Z,34.43
2022-12-04T18:43:43.642Z,28.50
2022-12-04T18:46:15.146Z,25.87
2022-12-04T18:48:42.216Z,30.63
2022-12-04T18:51:28.775Z,33.10
2022-12-04T18:54:04.265Z,30.83
2022-12-04T18:56:33.238Z,25.30
2022-12-04T18:59:02.294Z,28.17
2022-12-04T19:01:29.142Z,27.77
2022-12-04T19:04:01.220Z,27.37
2022-12-04T19:06:32.552Z,26.07
2022-12-04T19:09:00.904Z,27.33
2022-12-04T19:11:27.754Z,26.33
2022-12-04T19:13:54.348Z,28.83
2022-12-04T19:16:20.803Z,29.67
2022-12-04T19:18:47.527Z,25.40
2022-12-04T19:21:14.840Z,29.37
2022-12-04T19:23:42.165Z,30.23
2022-12-04T19:26:08.701Z,27.80
2022-12-04T19:28:35.834Z,28.30
2022-12-04T19:31:02.323Z,25.87
2022-12-04T19:33:29.378Z,36.47
2022-12-04T19:35:57.624Z,31.60
2022-12-04T19:38:24.764Z,25.43
2022-12-04T19:41:05.750Z,27.60
2022-12-04T19:43:32.315Z,26.53
2022-12-04T19:45:58.798Z,36.27
2022-12-04T19:48:25.207Z,29.43
2022-12-04T19:50:51.595Z,31.10
2022-12-04T19:53:17.983Z,28.63
2022-12-04T19:55:44.380Z,29.10
2022-12-04T19:58:11.194Z,25.50
2022-12-04T20:00:37.740Z,26.53
2022-12-04T20:03:04.303Z,25.80
2022-12-04T20:05:30.736Z,26.60
2022-12-04T20:10:23.275Z,28.77
2022-12-04T20:12:49.642Z,32.90
2022-12-04T20:15:16.028Z,31.70
2022-12-04T20:17:42.399Z,30.17
2022-12-04T20:20:09.110Z,27.83
2022-12-04T20:22:36.338Z,31.00
2022-12-04T20:25:02.886Z,28.73
2022-12-04T20:27:29.232Z,31.57
2022-12-04T20:29:55.880Z,31.07
2022-12-04T20:32:22.392Z,30.50
2022-12-04T20:34:48.727Z,33.67
2022-12-04T20:37:15.148Z,27.80
2022-12-04T20:39:41.512Z,32.50
2022-12-04T20:42:07.864Z,29.73
2022-12-04T20:44:34.213Z,30.47
2022-12-04T20:47:00.647Z,27.97
2022-12-04T20:49:26.984Z,26.57
2022-12-04T20:51:53.387Z,26.43
2022-12-04T20:54:21.884Z,26.43
2022-12-04T20:56:49.389Z,25.73
2022-12-04T20:59:18.008Z,29.10
2022-12-04T21:01:44.551Z,35.03
2022-12-04T21:04:12.934Z,29.53
2022-12-04T21:06:40.757Z,27.20
2022-12-04T21:09:11.651Z,27.20
2022-12-04T21:11:41.379Z,28.80
2022-12-04T21:14:30.766Z,28.67
2022-12-04T21:16:57.595Z,28.00
2022-12-04T21:19:24.354Z,26.47
2022-12-04T21:21:50.849Z,33.73
2022-12-04T21:24:19.859Z,31.53
2022-12-04T21:26:47.100Z,28.67
2022-12-04T21:29:14.653Z,29.70
2022-12-04T21:31:41.410Z,30.23
2022-12-04T21:34:11.223Z,33.27
2022-12-04T21:36:37.672Z,31.53
2022-12-04T21:39:04.865Z,32.73
2022-12-04T21:41:50.004Z,30.10
2022-12-04T21:44:18.652Z,33.27
2022-12-04T21:46:46.139Z,29.00
2022-12-04T21:49:13.628Z,35.10
2022-12-04T21:51:56.935Z,33.90
2022-12-04T21:54:24.760Z,30.40
2022-12-04T21:56:51.186Z,30.23
2022-12-04T21:59:17.547Z,26.77
2022-12-04T22:01:44.017Z,32.50
2022-12-04T22:04:10.416Z,31.03
2022-12-04T22:06:37.862Z,28.17
2022-12-04T22:09:07.750Z,29.80
2022-12-04T22:11:34.435Z,37.83
2022-12-04T22:14:00.775Z,38.33
2022-12-04T22:16:30.589Z,34.53
2022-12-04T22:18:58.650Z,30.23
2022-12-04T22:21:25.477Z,30.53
2022-12-04T22:24:00.035Z,28.87
2022-12-04T22:26:27.958Z,28.73
2022-12-04T22:28:55.042Z,26.37
2022-12-04T22:31:23.837Z,30.83
2022-12-04T22:33:52.101Z,33.30
2022-12-04T22:36:22.046Z,34.97
2022-12-04T22:39:08.106Z,28.27
2022-12-04T22:41:35.181Z,25.03
2022-12-04T22:44:01.698Z,29.33
2022-12-04T22:46:28.083Z,30.40
2022-12-04T22:48:54.569Z,33.33
2022-12-04T22:51:22.379Z,28.43
2022-12-04T22:53:51.585Z,31.23
2022-12-04T22:56:23.973Z,27.40
2022-12-04T22:58:51.210Z,31.07
2022-12-04T23:01:20.148Z,32.73
2022-12-04T23:03:47.326Z,37.37
2022-12-04T23:06:14.544Z,31.90
2022-12-04T23:08:42.175Z,28.27
2022-12-04T23:11:12.096Z,28.47
2022-12-04T23:13:39.213Z,33.33
2022-12-04T23:16:09.452Z,26.30
2022-12-04T23:18:36.428Z,29.90
2022-12-04T23:21:08.296Z,30.70
2022-12-04T23:23:36.182Z,25.77
2022-12-04T23:26:11.705Z,32.63
2022-12-04T23:28:38.711Z,25.60
2022-12-04T23:31:05.411Z,27.63
2022-12-04T23:33:32.744Z,33.43
2022-12-04T23:36:01.461Z,27.33
2022-12-04T23:38:28.995Z,28.43
2022-12-04T23:41:01.659Z,25.77
2022-12-04T23:43:28.017Z,32.23
2022-12-04T23:45:54.342Z,27.43
2022-12-04T23:48:20.849Z,23.53
2022-12-04T23:50:47.191Z,25.70
2022-12-04T23:53:13.661Z,28.90
2022-12-04T23:55:40.038Z,24.40
2022-12-04T23:58:06.433Z,24.50
